sensor_id;sensor_type;location;lat;lon;timestamp;P1;durP1;ratioP1;P2;durP2;ratioP2
5129;SDS011;2583;50.946;6.954;2022-12-17T00:02:02;73.40;;;31.20;;
5129;SDS011;2583;50.946;6.954;2022-12-17T00:04:48;69.63;;;27.50;;
5129;SDS011;2583;50.946;6.954;2022-12-17T00:07:33;66.67;;;27.27;;
5129;SDS011;2583;50.946;6.954;2022-12-17T00:10:21;68.40;;;28.07;;
5129;SDS011;2583;50.946;6.954;2022-12-17T00:13:15;70.07;;;26.93;;
5129;SDS011;2583;50.946;6.954;2022-12-17T00:16:09;71.50;;;26.57;;
5129;SDS011;2583;50.946;6.954;2022-12-17T00:18:55;74.70;;;28.80;;
5129;SDS011;2583;50.946;6.954;2022-12-17T00:21:40;73.30;;;27.60;;
5129;SDS011;2583;50.946;6.954;2022-12-17T00:24:25;83.60;;;27.90;;
5129;SDS011;2583;50.946;6.954;2022-12-17T00:27:10;72.80;;;25.90;;
5129;SDS011;2583;50.946;6.954;2022-12-17T00:29:56;78.00;;;27.17;;
5129;SDS011;2583;50.946;6.954;2022-12-17T00:32:41;75.67;;;25.97;;
5129;SDS011;2583;50.946;6.954;2022-12-17T00:35:27;74.13;;;25.83;;
5129;SDS011;2583;50.946;6.954;2022-12-17T00:38:13;72.53;;;24.80;;
5129;SDS011;2583;50.946;6.954;2022-12-17T00:41:02;73.03;;;24.43;;
5129;SDS011;2583;50.946;6.954;2022-12-17T00:43:48;72.07;;;25.83;;
5129;SDS011;2583;50.946;6.954;2022-12-17T00:46:33;68.57;;;25.30;;
5129;SDS011;2583;50.946;6.954;2022-12-17T00:49:18;54.90;;;23.83;;
5129;SDS011;2583;50.946;6.954;2022-12-17T00:52:04;80.63;;;26.90;;
5129;SDS011;2583;50.946;6.954;2022-12-17T00:54:49;72.43;;;24.93;;
5129;SDS011;2583;50.946;6.954;2022-12-17T00:57:35;68.67;;;25.27;;
5129;SDS011;2583;50.946;6.954;2022-12-17T01:00:21;72.40;;;25.60;;
5129;SDS011;2583;50.946;6.954;2022-12-17T01:03:08;72.33;;;25.80;;
5129;SDS011;2583;50.946;6.954;2022-12-17T01:05:55;72.73;;;27.27;;
5129;SDS011;2583;50.946;6.954;2022-12-17T01:08:45;83.80;;;25.10;;
5129;SDS011;2583;50.946;6.954;2022-12-17T01:11:30;74.60;;;26.57;;
5129;SDS011;2583;50.946;6.954;2022-12-17T01:14:15;64.07;;;22.40;;
5129;SDS011;2583;50.946;6.954;2022-12-17T01:17:00;55.00;;;21.33;;
5129;SDS011;2583;50.946;6.954;2022-12-17T01:19:45;61.13;;;23.20;;
5129;SDS011;2583;50.946;6.954;2022-12-17T01:22:31;75.30;;;25.90;;
5129;SDS011;2583;50.946;6.954;2022-12-17T01:25:16;61.83;;;23.57;;
5129;SDS011;2583;50.946;6.954;2022-12-17T01:28:02;67.40;;;23.67;;
5129;SDS011;2583;50.946;6.954;2022-12-17T01:30:47;58.73;;;23.10;;
5129;SDS011;2583;50.946;6.954;2022-12-17T01:33:32;67.50;;;22.10;;
5129;SDS011;2583;50.946;6.954;2022-12-17T01:36:18;51.07;;;21.63;;
5129;SDS011;2583;50.946;6.954;2022-12-17T01:39:04;55.57;;;23.17;;
5129;SDS011;2583;50.946;6.954;2022-12-17T01:41:49;65.40;;;22.67;;
5129;SDS011;2583;50.946;6.954;2022-12-17T01:44:45;62.10;;;22.10;;
5129;SDS011;2583;50.946;6.954;2022-12-17T01:47:38;66.00;;;23.13;;
5129;SDS011;2583;50.946;6.954;2022-12-17T01:50:43;66.80;;;24.60;;
5129;SDS011;2583;50.946;6.954;2022-12-17T01:53:36;54.83;;;22.40;;
5129;SDS011;2583;50.946;6.954;2022-12-17T01:56:25;59.50;;;21.50;;
5129;SDS011;2583;50.946;6.954;2022-12-17T01:59:10;61.23;;;23.23;;
5129;SDS011;2583;50.946;6.954;2022-12-17T02:01:56;64.20;;;21.63;;
5129;SDS011;2583;50.946;6.954;2022-12-17T02:04:42;56.87;;;22.40;;
5129;SDS011;2583;50.946;6.954;2022-12-17T02:14:01;72.93;;;20.50;;
5129;SDS011;2583;50.946;6.954;2022-12-17T02:17:06;66.60;;;22.87;;
5129;SDS011;2583;50.946;6.954;2022-12-17T02:26:39;56.43;;;20.73;;
5129;SDS011;2583;50.946;6.954;2022-12-17T02:29:28;62.50;;;22.20;;
5129;SDS011;2583;50.946;6.954;2022-12-17T02:32:22;65.83;;;23.07;;
5129;SDS011;2583;50.946;6.954;2022-12-17T02:38:19;67.40;;;21.67;;
5129;SDS011;2583;50.946;6.954;2022-12-17T02:41:07;53.00;;;21.10;;
5129;SDS011;2583;50.946;6.954;2022-12-17T02:43:56;53.70;;;21.43;;
5129;SDS011;2583;50.946;6.954;2022-12-17T02:46:43;63.10;;;23.07;;
5129;SDS011;2583;50.946;6.954;2022-12-17T02:49:30;50.63;;;20.77;;
5129;SDS011;2583;50.946;6.954;2022-12-17T02:52:16;60.80;;;20.70;;
5129;SDS011;2583;50.946;6.954;2022-12-17T02:55:03;56.30;;;21.63;;
5129;SDS011;2583;50.946;6.954;2022-12-17T02:57:49;50.20;;;20.80;;
5129;SDS011;2583;50.946;6.954;2022-12-17T03:00:35;58.40;;;21.87;;
5129;SDS011;2583;50.946;6.954;2022-12-17T03:03:21;57.23;;;20.53;;
5129;SDS011;2583;50.946;6.954;2022-12-17T03:06:12;50.23;;;20.93;;
5129;SDS011;2583;50.946;6.954;2022-12-17T03:08:58;54.20;;;20.53;;
5129;SDS011;2583;50.946;6.954;2022-12-17T03:11:43;59.70;;;22.47;;
5129;SDS011;2583;50.946;6.954;2022-12-17T03:14:28;51.03;;;20.60;;
5129;SDS011;2583;50.946;6.954;2022-12-17T03:17:14;52.47;;;20.63;;
5129;SDS011;2583;50.946;6.954;2022-12-17T03:19:59;50.53;;;19.33;;
5129;SDS011;2583;50.946;6.954;2022-12-17T03:22:45;64.23;;;21.23;;
5129;SDS011;2583;50.946;6.954;2022-12-17T03:25:30;56.07;;;21.33;;
5129;SDS011;2583;50.946;6.954;2022-12-17T03:28:15;56.97;;;21.10;;
5129;SDS011;2583;50.946;6.954;2022-12-17T03:31:00;57.33;;;21.10;;
5129;SDS011;2583;50.946;6.954;2022-12-17T03:33:46;55.33;;;22.53;;
5129;SDS011;2583;50.946;6.954;2022-12-17T03:36:31;50.03;;;20.47;;
5129;SDS011;2583;50.946;6.954;2022-12-17T03:39:17;52.37;;;21.23;;
5129;SDS011;2583;50.946;6.954;2022-12-17T03:42:02;47.93;;;20.63;;
5129;SDS011;2583;50.946;6.954;2022-12-17T03:44:48;55.93;;;20.50;;
5129;SDS011;2583;50.946;6.954;2022-12-17T03:47:33;59.60;;;20.53;;
5129;SDS011;2583;50.946;6.954;2022-12-17T03:50:18;50.90;;;20.93;;
5129;SDS011;2583;50.946;6.954;2022-12-17T03:53:04;59.60;;;22.10;;
5129;SDS011;2583;50.946;6.954;2022-12-17T03:55:49;58.33;;;21.93;;
5129;SDS011;2583;50.946;6.954;2022-12-17T03:58:35;48.40;;;21.10;;
5129;SDS011;2583;50.946;6.954;2022-12-17T04:01:20;51.77;;;20.53;;
5129;SDS011;2583;50.946;6.954;2022-12-17T04:04:06;56.80;;;21.93;;
5129;SDS011;2583;50.946;6.954;2022-12-17T04:06:51;60.00;;;21.37;;
5129;SDS011;2583;50.946;6.954;2022-12-17T04:09:36;53.00;;;22.37;;
5129;SDS011;2583;50.946;6.954;2022-12-17T04:12:21;56.37;;;22.33;;
5129;SDS011;2583;50.946;6.954;2022-12-17T04:15:07;53.87;;;21.23;;
5129;SDS011;2583;50.946;6.954;2022-12-17T04:17:53;45.07;;;18.67;;
5129;SDS011;2583;50.946;6.954;2022-12-17T04:20:39;55.10;;;19.80;;
5129;SDS011;2583;50.946;6.954;2022-12-17T04:23:24;68.00;;;20.93;;
5129;SDS011;2583;50.946;6.954;2022-12-17T04:26:09;52.40;;;20.70;;
5129;SDS011;2583;50.946;6.954;2022-12-17T04:28:55;50.00;;;19.37;;
5129;SDS011;2583;50.946;6.954;2022-12-17T04:31:40;42.13;;;18.50;;
5129;SDS011;2583;50.946;6.954;2022-12-17T04:34:25;63.77;;;19.73;;
5129;SDS011;2583;50.946;6.954;2022-12-17T04:37:11;53.40;;;19.63;;
5129;SDS011;2583;50.946;6.954;2022-12-17T04:39:56;50.27;;;20.70;;
5129;SDS011;2583;50.946;6.954;2022-12-17T04:42:41;53.33;;;21.50;;
5129;SDS011;2583;50.946;6.954;2022-12-17T04:45:26;54.80;;;19.80;;
5129;SDS011;2583;50.946;6.954;2022-12-17T04:48:12;48.13;;;19.60;;
5129;SDS011;2583;50.946;6.954;2022-12-17T04:50:57;53.67;;;21.53;;
5129;SDS011;2583;50.946;6.954;2022-12-17T04:53:42;57.47;;;21.87;;
5129;SDS011;2583;50.946;6.954;2022-12-17T04:56:28;43.93;;;20.60;;
5129;SDS011;2583;50.946;6.954;2022-12-17T04:59:13;49.47;;;19.60;;
5129;SDS011;2583;50.946;6.954;2022-12-17T05:01:59;48.47;;;19.07;;
5129;SDS011;2583;50.946;6.954;2022-12-17T05:04:45;56.37;;;21.00;;
5129;SDS011;2583;50.946;6.954;2022-12-17T05:07:30;47.03;;;18.70;;
5129;SDS011;2583;50.946;6.954;2022-12-17T05:10:15;53.87;;;20.67;;
5129;SDS011;2583;50.946;6.954;2022-12-17T05:13:01;46.30;;;19.83;;
5129;SDS011;2583;50.946;6.954;2022-12-17T05:15:47;40.73;;;17.60;;
5129;SDS011;2583;50.946;6.954;2022-12-17T05:18:32;52.80;;;20.10;;
5129;SDS011;2583;50.946;6.954;2022-12-17T05:21:17;53.30;;;19.97;;
5129;SDS011;2583;50.946;6.954;2022-12-17T05:24:03;48.80;;;19.80;;
5129;SDS011;2583;50.946;6.954;2022-12-17T05:26:48;54.83;;;21.37;;
5129;SDS011;2583;50.946;6.954;2022-12-17T05:29:33;50.57;;;20.40;;
5129;SDS011;2583;50.946;6.954;2022-12-17T05:32:19;50.67;;;19.20;;
5129;SDS011;2583;50.946;6.954;2022-12-17T05:35:04;43.60;;;19.63;;
5129;SDS011;2583;50.946;6.954;2022-12-17T05:37:50;50.43;;;20.30;;
5129;SDS011;2583;50.946;6.954;2022-12-17T05:40:35;59.83;;;20.50;;
5129;SDS011;2583;50.946;6.954;2022-12-17T05:43:21;49.33;;;20.40;;
5129;SDS011;2583;50.946;6.954;2022-12-17T05:46:06;47.13;;;21.10;;
5129;SDS011;2583;50.946;6.954;2022-12-17T05:48:52;50.77;;;21.00;;
5129;SDS011;2583;50.946;6.954;2022-12-17T05:51:37;53.10;;;21.80;;
5129;SDS011;2583;50.946;6.954;2022-12-17T05:54:22;53.40;;;20.70;;
5129;SDS011;2583;50.946;6.954;2022-12-17T05:57:08;51.37;;;21.00;;
5129;SDS011;2583;50.946;6.954;2022-12-17T05:59:53;49.40;;;19.67;;
5129;SDS011;2583;50.946;6.954;2022-12-17T06:02:38;48.80;;;20.13;;
5129;SDS011;2583;50.946;6.954;2022-12-17T06:05:23;50.90;;;21.70;;
5129;SDS011;2583;50.946;6.954;2022-12-17T06:08:09;55.87;;;21.10;;
5129;SDS011;2583;50.946;6.954;2022-12-17T06:10:56;51.07;;;21.30;;
5129;SDS011;2583;50.946;6.954;2022-12-17T06:13:43;50.23;;;21.80;;
5129;SDS011;2583;50.946;6.954;2022-12-17T06:16:28;40.40;;;18.60;;
5129;SDS011;2583;50.946;6.954;2022-12-17T06:19:14;49.40;;;22.90;;
5129;SDS011;2583;50.946;6.954;2022-12-17T06:21:59;51.57;;;21.70;;
5129;SDS011;2583;50.946;6.954;2022-12-17T06:24:44;43.13;;;19.27;;
5129;SDS011;2583;50.946;6.954;2022-12-17T06:27:30;48.33;;;21.30;;
5129;SDS011;2583;50.946;6.954;2022-12-17T06:30:15;51.50;;;22.50;;
5129;SDS011;2583;50.946;6.954;2022-12-17T06:33:05;48.20;;;21.37;;
5129;SDS011;2583;50.946;6.954;2022-12-17T06:35:52;52.40;;;22.10;;
5129;SDS011;2583;50.946;6.954;2022-12-17T06:38:47;47.37;;;21.83;;
5129;SDS011;2583;50.946;6.954;2022-12-17T06:41:32;52.17;;;21.93;;
5129;SDS011;2583;50.946;6.954;2022-12-17T06:44:28;59.20;;;23.30;;
5129;SDS011;2583;50.946;6.954;2022-12-17T06:47:13;55.47;;;22.27;;
5129;SDS011;2583;50.946;6.954;2022-12-17T06:49:59;53.07;;;22.27;;
5129;SDS011;2583;50.946;6.954;2022-12-17T06:52:44;47.47;;;21.13;;
5129;SDS011;2583;50.946;6.954;2022-12-17T06:55:30;56.83;;;21.37;;
5129;SDS011;2583;50.946;6.954;2022-12-17T06:58:15;63.73;;;22.17;;
5129;SDS011;2583;50.946;6.954;2022-12-17T07:01:00;55.83;;;22.07;;
5129;SDS011;2583;50.946;6.954;2022-12-17T07:03:46;50.27;;;19.67;;
5129;SDS011;2583;50.946;6.954;2022-12-17T07:06:31;47.00;;;21.80;;
5129;SDS011;2583;50.946;6.954;2022-12-17T07:09:24;50.50;;;19.83;;
5129;SDS011;2583;50.946;6.954;2022-12-17T07:12:10;45.40;;;20.93;;
5129;SDS011;2583;50.946;6.954;2022-12-17T07:14:55;46.63;;;20.17;;
5129;SDS011;2583;50.946;6.954;2022-12-17T07:17:41;42.23;;;17.80;;
5129;SDS011;2583;50.946;6.954;2022-12-17T07:20:26;45.27;;;19.53;;
5129;SDS011;2583;50.946;6.954;2022-12-17T07:23:11;52.17;;;19.00;;
5129;SDS011;2583;50.946;6.954;2022-12-17T07:25:57;50.10;;;19.87;;
5129;SDS011;2583;50.946;6.954;2022-12-17T07:28:42;46.53;;;19.17;;
5129;SDS011;2583;50.946;6.954;2022-12-17T07:31:27;47.67;;;17.90;;
5129;SDS011;2583;50.946;6.954;2022-12-17T07:34:13;42.53;;;18.63;;
5129;SDS011;2583;50.946;6.954;2022-12-17T07:36:58;52.17;;;18.83;;
5129;SDS011;2583;50.946;6.954;2022-12-17T07:39:45;39.47;;;17.60;;
5129;SDS011;2583;50.946;6.954;2022-12-17T07:42:31;40.70;;;18.40;;
5129;SDS011;2583;50.946;6.954;2022-12-17T07:45:17;44.40;;;18.53;;
5129;SDS011;2583;50.946;6.954;2022-12-17T07:48:02;52.27;;;19.10;;
5129;SDS011;2583;50.946;6.954;2022-12-17T07:50:48;44.63;;;17.80;;
5129;SDS011;2583;50.946;6.954;2022-12-17T07:53:44;46.83;;;18.07;;
5129;SDS011;2583;50.946;6.954;2022-12-17T07:56:30;39.23;;;17.20;;
5129;SDS011;2583;50.946;6.954;2022-12-17T07:59:15;46.93;;;18.27;;
5129;SDS011;2583;50.946;6.954;2022-12-17T08:02:01;40.27;;;18.27;;
5129;SDS011;2583;50.946;6.954;2022-12-17T08:04:46;40.20;;;16.77;;
5129;SDS011;2583;50.946;6.954;2022-12-17T08:07:32;37.17;;;16.80;;
5129;SDS011;2583;50.946;6.954;2022-12-17T08:10:17;49.63;;;19.20;;
5129;SDS011;2583;50.946;6.954;2022-12-17T08:13:03;41.20;;;16.80;;
5129;SDS011;2583;50.946;6.954;2022-12-17T08:15:51;36.63;;;16.07;;
5129;SDS011;2583;50.946;6.954;2022-12-17T08:18:37;41.27;;;17.17;;
5129;SDS011;2583;50.946;6.954;2022-12-17T08:21:22;48.90;;;16.77;;
5129;SDS011;2583;50.946;6.954;2022-12-17T08:24:07;43.57;;;17.70;;
5129;SDS011;2583;50.946;6.954;2022-12-17T08:26:54;49.63;;;16.60;;
5129;SDS011;2583;50.946;6.954;2022-12-17T08:29:39;41.73;;;18.70;;
5129;SDS011;2583;50.946;6.954;2022-12-17T08:32:24;31.70;;;15.70;;
5129;SDS011;2583;50.946;6.954;2022-12-17T08:35:10;43.00;;;19.17;;
5129;SDS011;2583;50.946;6.954;2022-12-17T08:38:05;37.43;;;17.50;;
5129;SDS011;2583;50.946;6.954;2022-12-17T08:40:50;37.03;;;16.90;;
5129;SDS011;2583;50.946;6.954;2022-12-17T08:43:36;35.47;;;15.47;;
5129;SDS011;2583;50.946;6.954;2022-12-17T08:46:21;37.57;;;17.07;;
5129;SDS011;2583;50.946;6.954;2022-12-17T08:49:06;29.80;;;16.10;;
5129;SDS011;2583;50.946;6.954;2022-12-17T08:51:52;35.93;;;15.80;;
5129;SDS011;2583;50.946;6.954;2022-12-17T08:54:38;31.70;;;14.37;;
5129;SDS011;2583;50.946;6.954;2022-12-17T08:57:23;32.40;;;15.67;;
5129;SDS011;2583;50.946;6.954;2022-12-17T09:00:09;27.97;;;14.00;;
5129;SDS011;2583;50.946;6.954;2022-12-17T09:02:58;30.63;;;14.30;;
5129;SDS011;2583;50.946;6.954;2022-12-17T09:05:45;37.80;;;16.30;;
5129;SDS011;2583;50.946;6.954;2022-12-17T09:08:31;27.40;;;14.60;;
5129;SDS011;2583;50.946;6.954;2022-12-17T09:11:16;27.80;;;14.30;;
5129;SDS011;2583;50.946;6.954;2022-12-17T09:14:12;23.37;;;12.87;;
5129;SDS011;2583;50.946;6.954;2022-12-17T09:16:58;29.47;;;14.10;;
5129;SDS011;2583;50.946;6.954;2022-12-17T09:19:43;22.43;;;13.20;;
5129;SDS011;2583;50.946;6.954;2022-12-17T09:22:28;31.00;;;14.93;;
5129;SDS011;2583;50.946;6.954;2022-12-17T09:25:14;27.73;;;13.53;;
5129;SDS011;2583;50.946;6.954;2022-12-17T09:28:02;25.30;;;13.97;;
5129;SDS011;2583;50.946;6.954;2022-12-17T09:30:48;23.30;;;11.40;;
5129;SDS011;2583;50.946;6.954;2022-12-17T09:33:33;23.73;;;13.47;;
5129;SDS011;2583;50.946;6.954;2022-12-17T09:36:19;25.40;;;12.23;;
5129;SDS011;2583;50.946;6.954;2022-12-17T09:39:04;23.70;;;13.03;;
5129;SDS011;2583;50.946;6.954;2022-12-17T09:44:49;20.77;;;12.70;;
5129;SDS011;2583;50.946;6.954;2022-12-17T09:50:27;25.40;;;13.90;;
5129;SDS011;2583;50.946;6.954;2022-12-17T09:53:18;20.50;;;13.67;;
5129;SDS011;2583;50.946;6.954;2022-12-17T09:56:07;23.37;;;12.67;;
5129;SDS011;2583;50.946;6.954;2022-12-17T09:58:55;22.70;;;12.50;;
5129;SDS011;2583;50.946;6.954;2022-12-17T10:01:42;23.97;;;12.33;;
5129;SDS011;2583;50.946;6.954;2022-12-17T10:04:38;20.13;;;12.70;;
5129;SDS011;2583;50.946;6.954;2022-12-17T10:07:33;18.60;;;11.80;;
5129;SDS011;2583;50.946;6.954;2022-12-17T10:10:26;22.40;;;13.80;;
5129;SDS011;2583;50.946;6.954;2022-12-17T10:13:15;20.07;;;12.40;;
5129;SDS011;2583;50.946;6.954;2022-12-17T10:16:36;25.67;;;12.93;;
5129;SDS011;2583;50.946;6.954;2022-12-17T10:19:34;22.27;;;13.23;;
5129;SDS011;2583;50.946;6.954;2022-12-17T10:22:23;27.83;;;13.83;;
5129;SDS011;2583;50.946;6.954;2022-12-17T10:25:16;18.07;;;12.10;;
5129;SDS011;2583;50.946;6.954;2022-12-17T10:28:04;25.87;;;13.63;;
5129;SDS011;2583;50.946;6.954;2022-12-17T10:30:58;21.37;;;12.40;;
5129;SDS011;2583;50.946;6.954;2022-12-17T10:33:45;18.97;;;13.10;;
5129;SDS011;2583;50.946;6.954;2022-12-17T10:36:30;22.13;;;12.97;;
5129;SDS011;2583;50.946;6.954;2022-12-17T10:39:20;25.23;;;12.90;;
5129;SDS011;2583;50.946;6.954;2022-12-17T10:42:18;15.80;;;12.33;;
5129;SDS011;2583;50.946;6.954;2022-12-17T10:45:30;18.30;;;11.47;;
5129;SDS011;2583;50.946;6.954;2022-12-17T10:48:18;20.10;;;11.80;;
5129;SDS011;2583;50.946;6.954;2022-12-17T10:51:19;20.20;;;12.20;;
5129;SDS011;2583;50.946;6.954;2022-12-17T10:54:19;17.03;;;11.47;;
5129;SDS011;2583;50.946;6.954;2022-12-17T10:57:48;21.17;;;12.77;;
5129;SDS011;2583;50.946;6.954;2022-12-17T11:06:12;23.10;;;13.57;;
5129;SDS011;2583;50.946;6.954;2022-12-17T11:09:12;25.97;;;12.97;;
5129;SDS011;2583;50.946;6.954;2022-12-17T11:12:04;22.97;;;13.80;;
5129;SDS011;2583;50.946;6.954;2022-12-17T11:14:58;24.73;;;13.27;;
5129;SDS011;2583;50.946;6.954;2022-12-17T11:17:51;18.47;;;12.27;;
5129;SDS011;2583;50.946;6.954;2022-12-17T11:20:45;23.13;;;13.20;;
5129;SDS011;2583;50.946;6.954;2022-12-17T11:23:35;23.10;;;13.30;;
5129;SDS011;2583;50.946;6.954;2022-12-17T11:26:26;26.97;;;12.97;;
5129;SDS011;2583;50.946;6.954;2022-12-17T11:29:17;28.97;;;14.17;;
5129;SDS011;2583;50.946;6.954;2022-12-17T11:38:38;24.87;;;12.90;;
5129;SDS011;2583;50.946;6.954;2022-12-17T11:42:13;25.40;;;13.20;;
5129;SDS011;2583;50.946;6.954;2022-12-17T11:45:12;22.20;;;13.17;;
5129;SDS011;2583;50.946;6.954;2022-12-17T11:48:04;19.23;;;11.90;;
5129;SDS011;2583;50.946;6.954;2022-12-17T11:50:56;26.40;;;15.50;;
5129;SDS011;2583;50.946;6.954;2022-12-17T11:54:07;22.50;;;14.33;;
5129;SDS011;2583;50.946;6.954;2022-12-17T12:00:16;31.07;;;17.60;;
5129;SDS011;2583;50.946;6.954;2022-12-17T12:10:02;22.23;;;14.63;;
5129;SDS011;2583;50.946;6.954;2022-12-17T12:16:15;30.97;;;16.17;;
5129;SDS011;2583;50.946;6.954;2022-12-17T12:22:57;29.40;;;14.97;;
5129;SDS011;2583;50.946;6.954;2022-12-17T12:29:11;25.90;;;14.40;;
5129;SDS011;2583;50.946;6.954;2022-12-17T12:35:00;28.17;;;13.60;;
5129;SDS011;2583;50.946;6.954;2022-12-17T12:37:48;22.10;;;14.27;;
5129;SDS011;2583;50.946;6.954;2022-12-17T12:40:57;23.47;;;14.10;;
5129;SDS011;2583;50.946;6.954;2022-12-17T12:43:50;27.10;;;14.47;;
5129;SDS011;2583;50.946;6.954;2022-12-17T12:49:30;25.07;;;14.47;;
5129;SDS011;2583;50.946;6.954;2022-12-17T12:52:22;24.13;;;15.07;;
5129;SDS011;2583;50.946;6.954;2022-12-17T12:55:09;22.93;;;13.40;;
5129;SDS011;2583;50.946;6.954;2022-12-17T12:57:57;22.73;;;13.43;;
5129;SDS011;2583;50.946;6.954;2022-12-17T13:11:46;24.43;;;14.30;;
5129;SDS011;2583;50.946;6.954;2022-12-17T13:17:34;23.93;;;14.93;;
5129;SDS011;2583;50.946;6.954;2022-12-17T13:20:20;29.07;;;14.20;;
5129;SDS011;2583;50.946;6.954;2022-12-17T13:22:52;21.27;;;13.23;;
5129;SDS011;2583;50.946;6.954;2022-12-17T13:25:30;19.60;;;13.20;;
5129;SDS011;2583;50.946;6.954;2022-12-17T13:27:57;24.73;;;13.90;;
5129;SDS011;2583;50.946;6.954;2022-12-17T13:30:34;24.33;;;13.50;;
5129;SDS011;2583;50.946;6.954;2022-12-17T13:36:11;19.20;;;13.00;;
5129;SDS011;2583;50.946;6.954;2022-12-17T13:41:58;18.20;;;12.50;;
5129;SDS011;2583;50.946;6.954;2022-12-17T13:44:30;18.77;;;13.40;;
5129;SDS011;2583;50.946;6.954;2022-12-17T13:47:25;18.90;;;12.43;;
5129;SDS011;2583;50.946;6.954;2022-12-17T13:49:54;22.50;;;13.97;;
5129;SDS011;2583;50.946;6.954;2022-12-17T13:52:43;18.97;;;12.47;;
5129;SDS011;2583;50.946;6.954;2022-12-17T13:55:15;26.27;;;13.77;;
5129;SDS011;2583;50.946;6.954;2022-12-17T13:57:46;24.83;;;13.80;;
5129;SDS011;2583;50.946;6.954;2022-12-17T14:02:56;20.47;;;13.20;;
5129;SDS011;2583;50.946;6.954;2022-12-17T14:07:59;19.17;;;12.83;;
5129;SDS011;2583;50.946;6.954;2022-12-17T14:10:29;20.57;;;13.07;;
5129;SDS011;2583;50.946;6.954;2022-12-17T14:13:06;24.20;;;14.77;;
5129;SDS011;2583;50.946;6.954;2022-12-17T14:15:38;20.50;;;13.57;;
5129;SDS011;2583;50.946;6.954;2022-12-17T14:18:15;21.27;;;13.07;;
5129;SDS011;2583;50.946;6.954;2022-12-17T14:20:45;19.20;;;13.10;;
5129;SDS011;2583;50.946;6.954;2022-12-17T14:23:22;18.93;;;12.63;;
5129;SDS011;2583;50.946;6.954;2022-12-17T14:25:56;22.47;;;14.10;;
5129;SDS011;2583;50.946;6.954;2022-12-17T14:28:30;25.17;;;14.27;;
5129;SDS011;2583;50.946;6.954;2022-12-17T14:31:06;24.00;;;14.00;;
5129;SDS011;2583;50.946;6.954;2022-12-17T14:36:36;22.47;;;14.20;;
5129;SDS011;2583;50.946;6.954;2022-12-17T14:39:17;24.80;;;14.20;;
5129;SDS011;2583;50.946;6.954;2022-12-17T14:41:47;26.03;;;14.33;;
5129;SDS011;2583;50.946;6.954;2022-12-17T14:44:34;30.13;;;14.57;;
5129;SDS011;2583;50.946;6.954;2022-12-17T14:47:11;22.80;;;14.97;;
5129;SDS011;2583;50.946;6.954;2022-12-17T14:49:53;22.00;;;14.30;;
5129;SDS011;2583;50.946;6.954;2022-12-17T14:52:25;25.07;;;14.17;;
5129;SDS011;2583;50.946;6.954;2022-12-17T14:54:53;25.20;;;13.93;;
5129;SDS011;2583;50.946;6.954;2022-12-17T14:57:20;22.53;;;15.23;;
5129;SDS011;2583;50.946;6.954;2022-12-17T14:59:48;22.07;;;14.43;;
5129;SDS011;2583;50.946;6.954;2022-12-17T15:04:42;22.43;;;13.03;;
5129;SDS011;2583;50.946;6.954;2022-12-17T15:07:11;24.77;;;16.07;;
5129;SDS011;2583;50.946;6.954;2022-12-17T15:09:43;23.90;;;15.23;;
5129;SDS011;2583;50.946;6.954;2022-12-17T15:12:10;27.07;;;15.03;;
5129;SDS011;2583;50.946;6.954;2022-12-17T15:14:37;28.67;;;16.90;;
5129;SDS011;2583;50.946;6.954;2022-12-17T15:17:03;24.67;;;15.23;;
5129;SDS011;2583;50.946;6.954;2022-12-17T15:19:31;25.30;;;14.70;;
5129;SDS011;2583;50.946;6.954;2022-12-17T15:21:58;26.20;;;15.23;;
5129;SDS011;2583;50.946;6.954;2022-12-17T15:24:24;23.27;;;14.30;;
5129;SDS011;2583;50.946;6.954;2022-12-17T15:26:52;23.47;;;15.87;;
5129;SDS011;2583;50.946;6.954;2022-12-17T15:29:19;24.83;;;14.30;;
5129;SDS011;2583;50.946;6.954;2022-12-17T15:31:45;24.50;;;15.30;;
5129;SDS011;2583;50.946;6.954;2022-12-17T15:34:12;25.83;;;14.77;;
5129;SDS011;2583;50.946;6.954;2022-12-17T15:36:39;27.53;;;15.10;;
5129;SDS011;2583;50.946;6.954;2022-12-17T15:39:06;20.17;;;14.30;;
5129;SDS011;2583;50.946;6.954;2022-12-17T15:41:34;20.90;;;14.40;;
5129;SDS011;2583;50.946;6.954;2022-12-17T15:44:20;23.17;;;14.77;;
5129;SDS011;2583;50.946;6.954;2022-12-17T15:46:46;25.70;;;15.10;;
5129;SDS011;2583;50.946;6.954;2022-12-17T15:49:13;24.33;;;14.60;;
5129;SDS011;2583;50.946;6.954;2022-12-17T15:51:40;22.97;;;14.07;;
5129;SDS011;2583;50.946;6.954;2022-12-17T15:54:07;26.13;;;14.80;;
5129;SDS011;2583;50.946;6.954;2022-12-17T15:56:34;23.00;;;13.47;;
5129;SDS011;2583;50.946;6.954;2022-12-17T15:59:02;24.83;;;14.80;;
5129;SDS011;2583;50.946;6.954;2022-12-17T16:01:29;24.77;;;15.03;;
5129;SDS011;2583;50.946;6.954;2022-12-17T16:03:56;24.30;;;15.07;;
5129;SDS011;2583;50.946;6.954;2022-12-17T16:06:23;28.23;;;15.43;;
5129;SDS011;2583;50.946;6.954;2022-12-17T16:08:49;22.80;;;13.63;;
5129;SDS011;2583;50.946;6.954;2022-12-17T16:11:16;25.03;;;13.87;;
5129;SDS011;2583;50.946;6.954;2022-12-17T16:13:43;27.30;;;14.90;;
5129;SDS011;2583;50.946;6.954;2022-12-17T16:16:10;28.40;;;15.63;;
5129;SDS011;2583;50.946;6.954;2022-12-17T16:18:36;20.70;;;13.33;;
5129;SDS011;2583;50.946;6.954;2022-12-17T16:21:05;24.80;;;14.63;;
5129;SDS011;2583;50.946;6.954;2022-12-17T16:23:33;22.03;;;14.00;;
5129;SDS011;2583;50.946;6.954;2022-12-17T16:26:00;21.50;;;14.50;;
5129;SDS011;2583;50.946;6.954;2022-12-17T16:28:29;21.40;;;13.10;;
5129;SDS011;2583;50.946;6.954;2022-12-17T16:31:06;22.97;;;13.47;;
5129;SDS011;2583;50.946;6.954;2022-12-17T16:33:35;21.33;;;13.60;;
5129;SDS011;2583;50.946;6.954;2022-12-17T16:36:03;24.67;;;13.70;;
5129;SDS011;2583;50.946;6.954;2022-12-17T16:38:31;21.67;;;12.87;;
5129;SDS011;2583;50.946;6.954;2022-12-17T16:40:59;19.27;;;11.90;;
5129;SDS011;2583;50.946;6.954;2022-12-17T16:43:28;20.50;;;12.77;;
5129;SDS011;2583;50.946;6.954;2022-12-17T16:45:58;20.53;;;13.70;;
5129;SDS011;2583;50.946;6.954;2022-12-17T16:48:25;19.00;;;13.77;;
5129;SDS011;2583;50.946;6.954;2022-12-17T16:50:52;18.97;;;13.17;;
5129;SDS011;2583;50.946;6.954;2022-12-17T16:53:19;21.17;;;12.83;;
5129;SDS011;2583;50.946;6.954;2022-12-17T16:55:47;19.53;;;13.20;;
5129;SDS011;2583;50.946;6.954;2022-12-17T16:58:15;21.63;;;14.37;;
5129;SDS011;2583;50.946;6.954;2022-12-17T17:00:43;17.53;;;12.83;;
5129;SDS011;2583;50.946;6.954;2022-12-17T17:03:11;24.07;;;14.17;;
5129;SDS011;2583;50.946;6.954;2022-12-17T17:05:38;20.73;;;12.93;;
5129;SDS011;2583;50.946;6.954;2022-12-17T17:08:05;22.60;;;13.57;;
5129;SDS011;2583;50.946;6.954;2022-12-17T17:10:34;20.40;;;13.10;;
5129;SDS011;2583;50.946;6.954;2022-12-17T17:13:02;20.50;;;13.70;;
5129;SDS011;2583;50.946;6.954;2022-12-17T17:15:29;24.53;;;14.40;;
5129;SDS011;2583;50.946;6.954;2022-12-17T17:17:56;21.00;;;13.80;;
5129;SDS011;2583;50.946;6.954;2022-12-17T17:20:27;23.73;;;13.80;;
5129;SDS011;2583;50.946;6.954;2022-12-17T17:22:57;19.83;;;13.40;;
5129;SDS011;2583;50.946;6.954;2022-12-17T17:25:25;29.07;;;14.47;;
5129;SDS011;2583;50.946;6.954;2022-12-17T17:28:12;23.00;;;14.13;;
5129;SDS011;2583;50.946;6.954;2022-12-17T17:30:38;23.20;;;13.80;;
5129;SDS011;2583;50.946;6.954;2022-12-17T17:33:05;22.93;;;14.20;;
5129;SDS011;2583;50.946;6.954;2022-12-17T17:35:32;19.10;;;12.77;;
5129;SDS011;2583;50.946;6.954;2022-12-17T17:37:58;21.33;;;14.00;;
5129;SDS011;2583;50.946;6.954;2022-12-17T17:40:26;20.40;;;13.67;;
5129;SDS011;2583;50.946;6.954;2022-12-17T17:42:52;247.33;;;52.80;;
5129;SDS011;2583;50.946;6.954;2022-12-17T17:45:19;32.20;;;16.93;;
5129;SDS011;2583;50.946;6.954;2022-12-17T17:47:46;21.67;;;14.63;;
5129;SDS011;2583;50.946;6.954;2022-12-17T17:50:13;24.30;;;14.10;;
5129;SDS011;2583;50.946;6.954;2022-12-17T17:52:40;20.53;;;13.90;;
5129;SDS011;2583;50.946;6.954;2022-12-17T17:55:06;22.70;;;14.10;;